sensor_id;sensor_type;location;lat;lon;timestamp;temperature;humidity
52859;DHT22;38721;53.098;6.596;2022-09-09T00:02:19;14.60;99.90
52859;DHT22;38721;53.098;6.596;2022-09-09T00:05:17;14.80;99.90
52859;DHT22;38721;53.098;6.596;2022-09-09T00:07:54;14.80;99.90
52859;DHT22;38721;53.098;6.596;2022-09-09T00:10:37;14.70;99.90
52859;DHT22;38721;53.098;6.596;2022-09-09T00:13:45;14.80;99.90
52859;DHT22;38721;53.098;6.596;2022-09-09T00:16:24;14.50;99.90
52859;DHT22;38721;53.098;6.596;2022-09-09T00:19:16;14.50;99.90
52859;DHT22;38721;53.098;6.596;2022-09-09T00:22:15;14.50;99.90
52859;DHT22;38721;53.098;6.596;2022-09-09T00:24:51;14.60;99.90
52859;DHT22;38721;53.098;6.596;2022-09-09T00:27:42;14.50;99.90
52859;DHT22;38721;53.098;6.596;2022-09-09T00:30:25;14.50;99.90
52859;DHT22;38721;53.098;6.596;2022-09-09T00:33:15;14.50;99.90
52859;DHT22;38721;53.098;6.596;2022-09-09T00:35:46;14.40;99.90
52859;DHT22;38721;53.098;6.596;2022-09-09T00:38:17;14.50;99.90
52859;DHT22;38721;53.098;6.596;2022-09-09T00:41:00;14.30;99.90
52859;DHT22;38721;53.098;6.596;2022-09-09T00:43:36;14.40;99.90
52859;DHT22;38721;53.098;6.596;2022-09-09T00:49:12;14.30;99.90
52859;DHT22;38721;53.098;6.596;2022-09-09T00:54:58;14.20;99.90
52859;DHT22;38721;53.098;6.596;2022-09-09T00:57:30;14.20;99.90
52859;DHT22;38721;53.098;6.596;2022-09-09T01:00:20;14.00;99.90
52859;DHT22;38721;53.098;6.596;2022-09-09T01:03:07;14.10;99.90
52859;DHT22;38721;53.098;6.596;2022-09-09T01:05:57;14.20;99.90
52859;DHT22;38721;53.098;6.596;2022-09-09T01:11:20;14.20;99.90
52859;DHT22;38721;53.098;6.596;2022-09-09T01:13:49;14.10;99.90
52859;DHT22;38721;53.098;6.596;2022-09-09T01:16:18;14.00;99.90
52859;DHT22;38721;53.098;6.596;2022-09-09T01:18:46;14.10;99.90
52859;DHT22;38721;53.098;6.596;2022-09-09T01:26:34;13.90;99.90
52859;DHT22;38721;53.098;6.596;2022-09-09T01:29:01;14.10;99.90
52859;DHT22;38721;53.098;6.596;2022-09-09T01:31:54;13.90;99.90
52859;DHT22;38721;53.098;6.596;2022-09-09T01:34:23;14.00;99.90
52859;DHT22;38721;53.098;6.596;2022-09-09T01:39:22;13.80;99.90
52859;DHT22;38721;53.098;6.596;2022-09-09T01:41:48;14.00;99.90
52859;DHT22;38721;53.098;6.596;2022-09-09T01:44:15;14.00;99.90
52859;DHT22;38721;53.098;6.596;2022-09-09T01:46:43;14.00;99.90
52859;DHT22;38721;53.098;6.596;2022-09-09T01:49:09;14.00;99.90
52859;DHT22;38721;53.098;6.596;2022-09-09T01:51:37;13.90;99.90
52859;DHT22;38721;53.098;6.596;2022-09-09T01:54:04;14.20;99.90
52859;DHT22;38721;53.098;6.596;2022-09-09T01:56:43;14.00;99.90
52859;DHT22;38721;53.098;6.596;2022-09-09T02:02:11;14.10;99.90
52859;DHT22;38721;53.098;6.596;2022-09-09T02:04:48;14.10;99.90
52859;DHT22;38721;53.098;6.596;2022-09-09T02:10:19;14.30;99.90
52859;DHT22;38721;53.098;6.596;2022-09-09T02:12:59;14.30;99.90
52859;DHT22;38721;53.098;6.596;2022-09-09T02:15:35;14.20;99.90
52859;DHT22;38721;53.098;6.596;2022-09-09T02:18:05;14.30;99.90
52859;DHT22;38721;53.098;6.596;2022-09-09T02:20:36;14.20;99.90
52859;DHT22;38721;53.098;6.596;2022-09-09T02:23:04;14.30;99.90
52859;DHT22;38721;53.098;6.596;2022-09-09T02:25:32;14.40;99.90
52859;DHT22;38721;53.098;6.596;2022-09-09T02:27:59;14.40;99.90
52859;DHT22;38721;53.098;6.596;2022-09-09T02:30:29;14.40;99.90
52859;DHT22;38721;53.098;6.596;2022-09-09T02:32:58;14.50;99.90
52859;DHT22;38721;53.098;6.596;2022-09-09T02:35:25;14.50;99.90
52859;DHT22;38721;53.098;6.596;2022-09-09T02:37:55;14.60;99.90
52859;DHT22;38721;53.098;6.596;2022-09-09T02:40:22;14.70;99.90
52859;DHT22;38721;53.098;6.596;2022-09-09T02:42:49;14.60;99.90
52859;DHT22;38721;53.098;6.596;2022-09-09T02:45:25;14.60;99.90
52859;DHT22;38721;53.098;6.596;2022-09-09T02:47:58;14.80;99.90
52859;DHT22;38721;53.098;6.596;2022-09-09T02:51:06;14.70;99.90
52859;DHT22;38721;53.098;6.596;2022-09-09T02:54:06;14.80;99.90
52859;DHT22;38721;53.098;6.596;2022-09-09T02:56:44;14.90;99.90
52859;DHT22;38721;53.098;6.596;2022-09-09T02:59:11;15.00;99.90
52859;DHT22;38721;53.098;6.596;2022-09-09T03:01:40;15.00;99.90
52859;DHT22;38721;53.098;6.596;2022-09-09T03:04:06;14.90;99.90
52859;DHT22;38721;53.098;6.596;2022-09-09T03:06:34;15.00;99.90
52859;DHT22;38721;53.098;6.596;2022-09-09T03:09:01;14.90;99.90
52859;DHT22;38721;53.098;6.596;2022-09-09T03:11:28;15.00;99.90
52859;DHT22;38721;53.098;6.596;2022-09-09T03:13:54;15.10;99.90
52859;DHT22;38721;53.098;6.596;2022-09-09T03:16:22;15.00;99.90
52859;DHT22;38721;53.098;6.596;2022-09-09T03:18:48;15.00;99.90
52859;DHT22;38721;53.098;6.596;2022-09-09T03:21:15;15.20;99.90
52859;DHT22;38721;53.098;6.596;2022-09-09T03:23:40;15.10;99.90
52859;DHT22;38721;53.098;6.596;2022-09-09T03:26:07;15.30;99.90
52859;DHT22;38721;53.098;6.596;2022-09-09T03:28:32;15.10;99.90
52859;DHT22;38721;53.098;6.596;2022-09-09T03:31:03;15.20;99.90
52859;DHT22;38721;53.098;6.596;2022-09-09T03:33:30;15.20;99.90
52859;DHT22;38721;53.098;6.596;2022-09-09T03:35:57;15.40;99.90
52859;DHT22;38721;53.098;6.596;2022-09-09T03:38:26;15.50;99.90
52859;DHT22;38721;53.098;6.596;2022-09-09T03:40:53;15.30;99.90
52859;DHT22;38721;53.098;6.596;2022-09-09T03:43:27;15.50;99.90
52859;DHT22;38721;53.098;6.596;2022-09-09T03:45:55;15.40;99.90
52859;DHT22;38721;53.098;6.596;2022-09-09T03:48:24;15.40;99.90
52859;DHT22;38721;53.098;6.596;2022-09-09T03:50:53;15.50;99.90
52859;DHT22;38721;53.098;6.596;2022-09-09T03:53:20;15.50;99.90
52859;DHT22;38721;53.098;6.596;2022-09-09T03:55:48;15.40;99.90
52859;DHT22;38721;53.098;6.596;2022-09-09T03:58:15;15.60;99.90
52859;DHT22;38721;53.098;6.596;2022-09-09T04:00:41;15.30;99.90
52859;DHT22;38721;53.098;6.596;2022-09-09T04:03:11;15.30;99.90
52859;DHT22;38721;53.098;6.596;2022-09-09T04:05:38;15.60;99.90
52859;DHT22;38721;53.098;6.596;2022-09-09T04:08:08;15.60;99.90
52859;DHT22;38721;53.098;6.596;2022-09-09T04:10:34;15.50;99.90
52859;DHT22;38721;53.098;6.596;2022-09-09T04:13:04;15.30;99.90
52859;DHT22;38721;53.098;6.596;2022-09-09T04:15:31;15.50;99.90
52859;DHT22;38721;53.098;6.596;2022-09-09T04:17:56;15.30;99.90
52859;DHT22;38721;53.098;6.596;2022-09-09T04:20:25;15.50;99.90
52859;DHT22;38721;53.098;6.596;2022-09-09T04:22:51;15.50;99.90
52859;DHT22;38721;53.098;6.596;2022-09-09T04:25:16;15.50;99.90
52859;DHT22;38721;53.098;6.596;2022-09-09T04:27:42;15.30;99.90
52859;DHT22;38721;53.098;6.596;2022-09-09T04:30:11;15.40;99.90
52859;DHT22;38721;53.098;6.596;2022-09-09T04:32:38;15.30;99.90
52859;DHT22;38721;53.098;6.596;2022-09-09T04:35:04;15.30;99.90
52859;DHT22;38721;53.098;6.596;2022-09-09T04:37:29;15.30;99.90
52859;DHT22;38721;53.098;6.596;2022-09-09T04:39:55;15.30;99.90
52859;DHT22;38721;53.098;6.596;2022-09-09T04:42:21;15.50;99.90
52859;DHT22;38721;53.098;6.596;2022-09-09T04:44:47;15.20;99.90
52859;DHT22;38721;53.098;6.596;2022-09-09T04:47:15;15.20;99.90
52859;DHT22;38721;53.098;6.596;2022-09-09T04:49:41;15.30;99.90
52859;DHT22;38721;53.098;6.596;2022-09-09T04:52:10;15.40;99.90
52859;DHT22;38721;53.098;6.596;2022-09-09T04:54:35;15.20;99.90
52859;DHT22;38721;53.098;6.596;2022-09-09T04:57:01;15.40;99.90
52859;DHT22;38721;53.098;6.596;2022-09-09T04:59:27;15.40;99.90
52859;DHT22;38721;53.098;6.596;2022-09-09T05:01:53;15.30;99.90
52859;DHT22;38721;53.098;6.596;2022-09-09T05:04:21;15.30;99.90
52859;DHT22;38721;53.098;6.596;2022-09-09T05:06:46;15.20;99.90
52859;DHT22;38721;53.098;6.596;2022-09-09T05:09:12;15.10;99.90
52859;DHT22;38721;53.098;6.596;2022-09-09T05:11:38;15.20;99.90
52859;DHT22;38721;53.098;6.596;2022-09-09T05:14:04;15.10;99.90
52859;DHT22;38721;53.098;6.596;2022-09-09T05:16:30;15.30;99.90
52859;DHT22;38721;53.098;6.596;2022-09-09T05:18:59;15.20;99.90
52859;DHT22;38721;53.098;6.596;2022-09-09T05:21:25;15.30;99.90
52859;DHT22;38721;53.098;6.596;2022-09-09T05:23:51;15.20;99.90
52859;DHT22;38721;53.098;6.596;2022-09-09T05:26:19;15.10;99.90
52859;DHT22;38721;53.098;6.596;2022-09-09T05:28:46;15.20;99.90
52859;DHT22;38721;53.098;6.596;2022-09-09T05:31:14;15.10;99.90
52859;DHT22;38721;53.098;6.596;2022-09-09T05:33:41;15.30;99.90
52859;DHT22;38721;53.098;6.596;2022-09-09T05:36:13;15.40;99.90
52859;DHT22;38721;53.098;6.596;2022-09-09T05:38:42;15.10;99.90
52859;DHT22;38721;53.098;6.596;2022-09-09T05:41:09;15.20;99.90
52859;DHT22;38721;53.098;6.596;2022-09-09T05:43:36;15.40;99.90
52859;DHT22;38721;53.098;6.596;2022-09-09T05:46:08;15.10;99.90
52859;DHT22;38721;53.098;6.596;2022-09-09T05:48:36;15.40;99.90
52859;DHT22;38721;53.098;6.596;2022-09-09T05:51:03;15.20;99.90
52859;DHT22;38721;53.098;6.596;2022-09-09T05:53:30;15.20;99.90
52859;DHT22;38721;53.098;6.596;2022-09-09T05:56:04;15.20;99.90
52859;DHT22;38721;53.098;6.596;2022-09-09T05:58:32;15.50;99.90
52859;DHT22;38721;53.098;6.596;2022-09-09T06:01:08;15.40;99.90
52859;DHT22;38721;53.098;6.596;2022-09-09T06:03:36;15.40;99.90
52859;DHT22;38721;53.098;6.596;2022-09-09T06:06:07;15.50;99.90
52859;DHT22;38721;53.098;6.596;2022-09-09T06:08:43;15.50;99.90
52859;DHT22;38721;53.098;6.596;2022-09-09T06:11:18;15.20;99.90
52859;DHT22;38721;53.098;6.596;2022-09-09T06:13:44;15.30;99.90
52859;DHT22;38721;53.098;6.596;2022-09-09T06:16:16;15.50;99.90
52859;DHT22;38721;53.098;6.596;2022-09-09T06:18:43;15.50;99.90
52859;DHT22;38721;53.098;6.596;2022-09-09T06:21:14;15.30;99.90
52859;DHT22;38721;53.098;6.596;2022-09-09T06:23:40;15.50;99.90
52859;DHT22;38721;53.098;6.596;2022-09-09T06:26:13;15.50;99.90
52859;DHT22;38721;53.098;6.596;2022-09-09T06:28:39;15.40;99.90
52859;DHT22;38721;53.098;6.596;2022-09-09T06:31:10;15.40;99.90
52859;DHT22;38721;53.098;6.596;2022-09-09T06:33:39;15.40;99.90
52859;DHT22;38721;53.098;6.596;2022-09-09T06:36:17;15.70;99.90
52859;DHT22;38721;53.098;6.596;2022-09-09T06:38:44;15.40;99.90
52859;DHT22;38721;53.098;6.596;2022-09-09T06:41:12;15.70;99.90
52859;DHT22;38721;53.098;6.596;2022-09-09T06:43:38;15.50;99.90
52859;DHT22;38721;53.098;6.596;2022-09-09T06:46:17;15.50;99.90
52859;DHT22;38721;53.098;6.596;2022-09-09T06:48:44;15.80;99.90
52859;DHT22;38721;53.098;6.596;2022-09-09T06:51:13;15.80;99.90
52859;DHT22;38721;53.098;6.596;2022-09-09T06:53:41;15.80;99.90
52859;DHT22;38721;53.098;6.596;2022-09-09T06:58:43;16.00;99.90
52859;DHT22;38721;53.098;6.596;2022-09-09T07:01:11;16.00;99.90
52859;DHT22;38721;53.098;6.596;2022-09-09T07:03:38;16.00;99.90
52859;DHT22;38721;53.098;6.596;2022-09-09T07:06:06;15.90;99.90
52859;DHT22;38721;53.098;6.596;2022-09-09T07:08:35;16.00;99.90
52859;DHT22;38721;53.098;6.596;2022-09-09T07:11:06;16.20;99.90
52859;DHT22;38721;53.098;6.596;2022-09-09T07:13:33;16.10;99.90
52859;DHT22;38721;53.098;6.596;2022-09-09T07:16:06;16.20;99.90
52859;DHT22;38721;53.098;6.596;2022-09-09T07:18:33;16.30;99.90
52859;DHT22;38721;53.098;6.596;2022-09-09T07:21:00;16.40;99.90
52859;DHT22;38721;53.098;6.596;2022-09-09T07:23:26;16.40;99.90
52859;DHT22;38721;53.098;6.596;2022-09-09T07:25:54;16.50;99.90
52859;DHT22;38721;53.098;6.596;2022-09-09T07:28:21;16.60;99.90
52859;DHT22;38721;53.098;6.596;2022-09-09T07:30:54;16.60;99.90
52859;DHT22;38721;53.098;6.596;2022-09-09T07:33:23;16.60;99.90
52859;DHT22;38721;53.098;6.596;2022-09-09T07:35:52;16.70;99.90
52859;DHT22;38721;53.098;6.596;2022-09-09T07:38:19;16.70;99.90
52859;DHT22;38721;53.098;6.596;2022-09-09T07:40:46;16.90;99.90
52859;DHT22;38721;53.098;6.596;2022-09-09T07:43:15;17.00;99.90
52859;DHT22;38721;53.098;6.596;2022-09-09T07:45:42;16.90;99.90
52859;DHT22;38721;53.098;6.596;2022-09-09T07:48:08;17.10;99.90
52859;DHT22;38721;53.098;6.596;2022-09-09T07:50:37;17.00;99.90
52859;DHT22;38721;53.098;6.596;2022-09-09T07:53:03;17.20;99.90
52859;DHT22;38721;53.098;6.596;2022-09-09T07:55:30;17.20;99.90
52859;DHT22;38721;53.098;6.596;2022-09-09T07:57:56;17.30;99.90
52859;DHT22;38721;53.098;6.596;2022-09-09T08:00:22;17.30;99.90
52859;DHT22;38721;53.098;6.596;2022-09-09T08:02:49;17.50;99.90
52859;DHT22;38721;53.098;6.596;2022-09-09T08:05:14;17.90;99.90
52859;DHT22;38721;53.098;6.596;2022-09-09T08:07:42;17.70;99.90
52859;DHT22;38721;53.098;6.596;2022-09-09T08:10:11;18.10;99.90
52859;DHT22;38721;53.098;6.596;2022-09-09T08:12:36;18.10;99.90
52859;DHT22;38721;53.098;6.596;2022-09-09T08:15:02;18.30;99.90
52859;DHT22;38721;53.098;6.596;2022-09-09T08:17:28;18.60;99.90
52859;DHT22;38721;53.098;6.596;2022-09-09T08:19:54;18.60;99.90
52859;DHT22;38721;53.098;6.596;2022-09-09T08:22:19;18.70;99.90
52859;DHT22;38721;53.098;6.596;2022-09-09T08:24:45;18.50;99.90
52859;DHT22;38721;53.098;6.596;2022-09-09T08:27:15;18.50;99.90
52859;DHT22;38721;53.098;6.596;2022-09-09T08:29:41;18.60;99.90
52859;DHT22;38721;53.098;6.596;2022-09-09T08:32:07;18.90;99.90
52859;DHT22;38721;53.098;6.596;2022-09-09T08:34:32;18.70;99.90
52859;DHT22;38721;53.098;6.596;2022-09-09T08:36:58;18.90;99.90
52859;DHT22;38721;53.098;6.596;2022-09-09T08:39:24;18.70;99.90
52859;DHT22;38721;53.098;6.596;2022-09-09T08:44:52;18.50;99.90
52859;DHT22;38721;53.098;6.596;2022-09-09T08:50:29;18.60;99.90
52859;DHT22;38721;53.098;6.596;2022-09-09T08:53:05;18.50;99.90
52859;DHT22;38721;53.098;6.596;2022-09-09T08:55:52;18.30;99.90
52859;DHT22;38721;53.098;6.596;2022-09-09T08:58:22;18.40;99.90
52859;DHT22;38721;53.098;6.596;2022-09-09T09:04:00;18.60;99.90
52859;DHT22;38721;53.098;6.596;2022-09-09T09:09:15;18.80;99.90
52859;DHT22;38721;53.098;6.596;2022-09-09T09:11:50;18.90;99.90
52859;DHT22;38721;53.098;6.596;2022-09-09T09:14:21;19.00;99.90
52859;DHT22;38721;53.098;6.596;2022-09-09T09:17:00;19.50;77.10
52859;DHT22;38721;53.098;6.596;2022-09-09T09:19:32;19.60;37.40
52859;DHT22;38721;53.098;6.596;2022-09-09T09:22:18;19.80;99.90
52859;DHT22;38721;53.098;6.596;2022-09-09T09:24:58;19.80;70.60
52859;DHT22;38721;53.098;6.596;2022-09-09T09:32:49;19.90;69.50
52859;DHT22;38721;53.098;6.596;2022-09-09T09:35:17;20.00;1.00
52859;DHT22;38721;53.098;6.596;2022-09-09T09:37:42;20.00;1.00
52859;DHT22;38721;53.098;6.596;2022-09-09T09:40:13;20.10;99.90
52859;DHT22;38721;53.098;6.596;2022-09-09T09:42:55;19.90;1.00
52859;DHT22;38721;53.098;6.596;2022-09-09T09:45:34;20.10;99.90
52859;DHT22;38721;53.098;6.596;2022-09-09T09:48:09;20.40;99.90
52859;DHT22;38721;53.098;6.596;2022-09-09T09:51:11;20.20;99.90
52859;DHT22;38721;53.098;6.596;2022-09-09T09:53:41;20.40;82.60
52859;DHT22;38721;53.098;6.596;2022-09-09T09:56:13;20.60;1.00
52859;DHT22;38721;53.098;6.596;2022-09-09T10:01:27;21.40;1.00
52859;DHT22;38721;53.098;6.596;2022-09-09T10:04:16;21.40;99.90
52859;DHT22;38721;53.098;6.596;2022-09-09T10:06:44;21.30;73.90
52859;DHT22;38721;53.098;6.596;2022-09-09T10:09:25;20.90;1.00
52859;DHT22;38721;53.098;6.596;2022-09-09T10:17:20;21.00;99.90
52859;DHT22;38721;53.098;6.596;2022-09-09T10:23:13;20.40;1.00
52859;DHT22;38721;53.098;6.596;2022-09-09T10:32:16;21.00;99.90
52859;DHT22;38721;53.098;6.596;2022-09-09T10:37:58;20.40;99.90
52859;DHT22;38721;53.098;6.596;2022-09-09T10:40:40;21.20;99.90
52859;DHT22;38721;53.098;6.596;2022-09-09T10:45:55;21.80;99.90
52859;DHT22;38721;53.098;6.596;2022-09-09T10:56:16;21.30;1.00
52859;DHT22;38721;53.098;6.596;2022-09-09T10:59:20;21.50;99.90
52859;DHT22;38721;53.098;6.596;2022-09-09T11:01:56;21.20;99.90
52859;DHT22;38721;53.098;6.596;2022-09-09T11:04:40;21.20;99.90
52859;DHT22;38721;53.098;6.596;2022-09-09T11:07:10;21.30;99.90
52859;DHT22;38721;53.098;6.596;2022-09-09T11:09:50;21.80;99.90
52859;DHT22;38721;53.098;6.596;2022-09-09T11:12:19;21.90;99.90
52859;DHT22;38721;53.098;6.596;2022-09-09T11:14:54;21.90;99.90
52859;DHT22;38721;53.098;6.596;2022-09-09T11:17:24;22.00;1.00
52859;DHT22;38721;53.098;6.596;2022-09-09T11:19:52;22.50;99.90
52859;DHT22;38721;53.098;6.596;2022-09-09T11:22:37;22.30;1.00
52859;DHT22;38721;53.098;6.596;2022-09-09T11:42:18;21.90;99.90
52859;DHT22;38721;53.098;6.596;2022-09-09T11:44:45;22.20;1.00
52859;DHT22;38721;53.098;6.596;2022-09-09T11:47:27;22.40;46.80
52859;DHT22;38721;53.098;6.596;2022-09-09T11:52:44;21.80;81.10
52859;DHT22;38721;53.098;6.596;2022-09-09T11:55:33;22.10;99.90
52859;DHT22;38721;53.098;6.596;2022-09-09T11:58:02;21.90;1.00
52859;DHT22;38721;53.098;6.596;2022-09-09T12:00:43;21.90;99.90
52859;DHT22;38721;53.098;6.596;2022-09-09T12:05:57;22.10;99.90
52859;DHT22;38721;53.098;6.596;2022-09-09T12:08:28;22.00;99.90
52859;DHT22;38721;53.098;6.596;2022-09-09T12:10:56;21.90;1.00
52859;DHT22;38721;53.098;6.596;2022-09-09T12:13:24;21.90;99.90
52859;DHT22;38721;53.098;6.596;2022-09-09T12:15:56;21.80;99.90
52859;DHT22;38721;53.098;6.596;2022-09-09T12:18:24;21.60;99.90
52859;DHT22;38721;53.098;6.596;2022-09-09T12:21:01;21.50;99.90
52859;DHT22;38721;53.098;6.596;2022-09-09T12:26:37;21.20;1.00
52859;DHT22;38721;53.098;6.596;2022-09-09T12:29:24;21.30;99.90
52859;DHT22;38721;53.098;6.596;2022-09-09T12:37:51;21.80;99.90
52859;DHT22;38721;53.098;6.596;2022-09-09T12:40:24;22.20;99.90
52859;DHT22;38721;53.098;6.596;2022-09-09T12:42:51;22.60;19.40
52859;DHT22;38721;53.098;6.596;2022-09-09T12:45:19;22.40;82.10
52859;DHT22;38721;53.098;6.596;2022-09-09T12:50:23;23.00;99.90
52859;DHT22;38721;53.098;6.596;2022-09-09T12:53:06;22.40;99.90
52859;DHT22;38721;53.098;6.596;2022-09-09T12:55:36;23.10;99.90
52859;DHT22;38721;53.098;6.596;2022-09-09T12:58:04;22.60;99.90
52859;DHT22;38721;53.098;6.596;2022-09-09T13:00:32;22.70;1.00
52859;DHT22;38721;53.098;6.596;2022-09-09T13:03:14;22.90;91.70
52859;DHT22;38721;53.098;6.596;2022-09-09T13:05:41;23.40;99.90
52859;DHT22;38721;53.098;6.596;2022-09-09T13:08:12;23.30;99.90
52859;DHT22;38721;53.098;6.596;2022-09-09T13:11:03;23.30;6.90
52859;DHT22;38721;53.098;6.596;2022-09-09T13:13:38;23.00;99.90
52859;DHT22;38721;53.098;6.596;2022-09-09T13:16:05;22.70;36.70
52859;DHT22;38721;53.098;6.596;2022-09-09T13:18:43;22.70;1.00
52859;DHT22;38721;53.098;6.596;2022-09-09T13:21:09;23.50;99.90
52859;DHT22;38721;53.098;6.596;2022-09-09T13:23:36;22.80;99.90
52859;DHT22;38721;53.098;6.596;2022-09-09T13:26:04;22.60;99.90
52859;DHT22;38721;53.098;6.596;2022-09-09T13:28:32;22.50;59.80
52859;DHT22;38721;53.098;6.596;2022-09-09T13:30:59;22.00;99.90
52859;DHT22;38721;53.098;6.596;2022-09-09T13:35:57;21.60;99.90
52859;DHT22;38721;53.098;6.596;2022-09-09T13:38:27;22.00;99.90
52859;DHT22;38721;53.098;6.596;2022-09-09T13:40:59;22.50;1.00
52859;DHT22;38721;53.098;6.596;2022-09-09T13:43:34;23.10;99.90
52859;DHT22;38721;53.098;6.596;2022-09-09T13:51:37;24.10;99.90
52859;DHT22;38721;53.098;6.596;2022-09-09T13:54:05;24.60;90.20
52859;DHT22;38721;53.098;6.596;2022-09-09T13:56:33;24.70;99.90
52859;DHT22;38721;53.098;6.596;2022-09-09T13:58:59;23.40;1.00
52859;DHT22;38721;53.098;6.596;2022-09-09T14:01:25;23.10;99.90
52859;DHT22;38721;53.098;6.596;2022-09-09T14:03:53;22.90;1.00
52859;DHT22;38721;53.098;6.596;2022-09-09T14:06:19;22.90;99.90
52859;DHT22;38721;53.098;6.596;2022-09-09T14:08:47;23.00;99.90
52859;DHT22;38721;53.098;6.596;2022-09-09T14:11:14;23.40;99.90
52859;DHT22;38721;53.098;6.596;2022-09-09T14:13:40;23.90;1.00
52859;DHT22;38721;53.098;6.596;2022-09-09T14:16:06;23.50;99.90
52859;DHT22;38721;53.098;6.596;2022-09-09T14:18:31;23.40;99.90
52859;DHT22;38721;53.098;6.596;2022-09-09T14:20:57;22.80;99.90
52859;DHT22;38721;53.098;6.596;2022-09-09T14:23:23;22.30;1.00
52859;DHT22;38721;53.098;6.596;2022-09-09T14:25:49;21.90;99.90
52859;DHT22;38721;53.098;6.596;2022-09-09T14:28:19;21.40;1.00
52859;DHT22;38721;53.098;6.596;2022-09-09T14:30:45;20.90;30.50
52859;DHT22;38721;53.098;6.596;2022-09-09T14:33:15;20.30;53.80
52859;DHT22;38721;53.098;6.596;2022-09-09T14:35:41;20.20;99.90
52859;DHT22;38721;53.098;6.596;2022-09-09T14:38:08;20.00;99.90
52859;DHT22;38721;53.098;6.596;2022-09-09T14:40:38;20.10;1.00
52859;DHT22;38721;53.098;6.596;2022-09-09T14:43:04;20.40;99.90
52859;DHT22;38721;53.098;6.596;2022-09-09T14:45:31;20.90;99.90
52859;DHT22;38721;53.098;6.596;2022-09-09T14:47:56;21.60;99.90
52859;DHT22;38721;53.098;6.596;2022-09-09T14:50:23;22.30;1.00
52859;DHT22;38721;53.098;6.596;2022-09-09T14:52:49;23.60;99.90
52859;DHT22;38721;53.098;6.596;2022-09-09T14:55:16;25.50;99.90
52859;DHT22;38721;53.098;6.596;2022-09-09T14:57:42;26.70;99.90
52859;DHT22;38721;53.098;6.596;2022-09-09T15:00:09;27.00;1.00
52859;DHT22;38721;53.098;6.596;2022-09-09T15:02:36;25.80;99.90
52859;DHT22;38721;53.098;6.596;2022-09-09T15:05:02;24.10;82.30
52859;DHT22;38721;53.098;6.596;2022-09-09T15:07:29;23.90;1.00
52859;DHT22;38721;53.098;6.596;2022-09-09T15:09:57;23.80;99.90
52859;DHT22;38721;53.098;6.596;2022-09-09T15:12:23;23.20;99.90
52859;DHT22;38721;53.098;6.596;2022-09-09T15:14:49;23.00;99.90
52859;DHT22;38721;53.098;6.596;2022-09-09T15:17:16;22.90;1.00
52859;DHT22;38721;53.098;6.596;2022-09-09T15:19:41;24.50;99.90
52859;DHT22;38721;53.098;6.596;2022-09-09T15:22:08;24.40;99.90
52859;DHT22;38721;53.098;6.596;2022-09-09T15:24:37;25.30;99.90
52859;DHT22;38721;53.098;6.596;2022-09-09T15:27:03;25.20;1.00
52859;DHT22;38721;53.098;6.596;2022-09-09T15:29:28;24.10;1.00
52859;DHT22;38721;53.098;6.596;2022-09-09T15:31:54;23.50;99.90
52859;DHT22;38721;53.098;6.596;2022-09-09T15:34:23;23.00;1.00
52859;DHT22;38721;53.098;6.596;2022-09-09T15:36:52;22.90;99.90
52859;DHT22;38721;53.098;6.596;2022-09-09T15:39:18;23.90;31.90
52859;DHT22;38721;53.098;6.596;2022-09-09T15:41:45;25.80;99.90
52859;DHT22;38721;53.098;6.596;2022-09-09T15:44:12;26.70;99.90
52859;DHT22;38721;53.098;6.596;2022-09-09T15:46:48;25.70;83.80
52859;DHT22;38721;53.098;6.596;2022-09-09T15:49:18;24.60;99.90
52859;DHT22;38721;53.098;6.596;2022-09-09T15:51:47;24.60;99.90
52859;DHT22;38721;53.098;6.596;2022-09-09T15:54:17;25.60;99.90
52859;DHT22;38721;53.098;6.596;2022-09-09T15:56:44;25.80;99.90
52859;DHT22;38721;53.098;6.596;2022-09-09T15:59:11;25.30;99.90
52859;DHT22;38721;53.098;6.596;2022-09-09T16:01:37;24.60;99.90
52859;DHT22;38721;53.098;6.596;2022-09-09T16:04:05;25.80;99.90
52859;DHT22;38721;53.098;6.596;2022-09-09T16:06:31;25.30;96.70
52859;DHT22;38721;53.098;6.596;2022-09-09T16:08:58;24.80;99.90
52859;DHT22;38721;53.098;6.596;2022-09-09T16:11:35;23.60;99.90
52859;DHT22;38721;53.098;6.596;2022-09-09T16:14:02;22.90;99.90
52859;DHT22;38721;53.098;6.596;2022-09-09T16:16:29;22.80;99.90
52859;DHT22;38721;53.098;6.596;2022-09-09T16:19:02;22.50;99.90
52859;DHT22;38721;53.098;6.596;2022-09-09T16:21:34;22.00;1.00
52859;DHT22;38721;53.098;6.596;2022-09-09T16:24:01;21.50;99.90
52859;DHT22;38721;53.098;6.596;2022-09-09T16:26:29;21.40;99.90
52859;DHT22;38721;53.098;6.596;2022-09-09T16:28:56;21.40;99.90
52859;DHT22;38721;53.098;6.596;2022-09-09T16:31:28;21.20;99.90
52859;DHT22;38721;53.098;6.596;2022-09-09T16:34:00;20.90;1.00
52859;DHT22;38721;53.098;6.596;2022-09-09T16:36:28;20.90;99.90
52859;DHT22;38721;53.098;6.596;2022-09-09T16:38:59;20.80;99.90
52859;DHT22;38721;53.098;6.596;2022-09-09T16:41:26;20.30;99.90
52859;DHT22;38721;53.098;6.596;2022-09-09T16:44:00;20.40;99.90
52859;DHT22;38721;53.098;6.596;2022-09-09T16:46:32;20.20;1.00
52859;DHT22;38721;53.098;6.596;2022-09-09T16:48:59;20.00;1.00
52859;DHT22;38721;53.098;6.596;2022-09-09T16:51:27;20.40;1.00
52859;DHT22;38721;53.098;6.596;2022-09-09T16:53:58;20.60;99.90
52859;DHT22;38721;53.098;6.596;2022-09-09T16:56:26;20.80;1.00
52859;DHT22;38721;53.098;6.596;2022-09-09T16:59:00;21.00;1.00
52859;DHT22;38721;53.098;6.596;2022-09-09T17:01:28;21.20;61.60
52859;DHT22;38721;53.098;6.596;2022-09-09T17:04:00;20.80;99.90
52859;DHT22;38721;53.098;6.596;2022-09-09T17:06:30;20.50;99.90
52859;DHT22;38721;53.098;6.596;2022-09-09T17:09:00;20.30;99.90
52859;DHT22;38721;53.098;6.596;2022-09-09T17:11:27;19.90;51.60
52859;DHT22;38721;53.098;6.596;2022-09-09T17:13:58;19.90;1.00
52859;DHT22;38721;53.098;6.596;2022-09-09T17:16:25;19.80;99.90
52859;DHT22;38721;53.098;6.596;2022-09-09T17:18:53;19.80;99.90
52859;DHT22;38721;53.098;6.596;2022-09-09T17:21:22;19.60;1.00
52859;DHT22;38721;53.098;6.596;2022-09-09T17:23:49;19.60;99.90
52859;DHT22;38721;53.098;6.596;2022-09-09T17:26:17;19.50;68.40
52859;DHT22;38721;53.098;6.596;2022-09-09T17:28:44;19.50;1.00
52859;DHT22;38721;53.098;6.596;2022-09-09T17:31:13;19.30;90.70
52859;DHT22;38721;53.098;6.596;2022-09-09T17:33:42;19.30;99.90
52859;DHT22;38721;53.098;6.596;2022-09-09T17:36:14;19.00;99.90
52859;DHT22;38721;53.098;6.596;2022-09-09T17:38:43;19.10;1.00
52859;DHT22;38721;53.098;6.596;2022-09-09T17:41:13;18.90;1.00
52859;DHT22;38721;53.098;6.596;2022-09-09T17:43:40;18.90;46.80
52859;DHT22;38721;53.098;6.596;2022-09-09T17:46:11;18.80;1.00
52859;DHT22;38721;53.098;6.596;2022-09-09T17:48:38;18.70;99.90
52859;DHT22;38721;53.098;6.596;2022-09-09T17:51:06;18.70;99.90